SAS4051 ENGM-ENZV
Flight info
| Callsign | SAS4051 |
|---|---|
| Flight time | 0h 40m |
| Altitude | 28000 |
| Route | ATLAP DCT IPMOD DCT ROPNO |
| Aircraft | A320/M-SDE3FGHIRWY/LB1 |
Departure
| Time | 2026-05-07 21:31 |
|---|---|
| Airport | Oslo-Gardermoen International Airport (ENGM) |
Arrival
| Time | 2026-05-07 22:11 |
|---|---|
| Airport | Stavanger Airport, Sola (ENZV) |
| Time | Latitude | Longitude | Altitude | Speed | Heading |
|---|---|---|---|---|---|
| 2026-05-07 21:04 | 60.19314 | 11.10495 | 685 ft | 0 kts | 16° |
| 2026-05-07 21:19 | 60.19313 | 11.10495 | 685 ft | 0 kts | 16° |
| 2026-05-07 21:19 | 60.19314 | 11.10495 | 685 ft | 0 kts | 16° |
| 2026-05-07 21:19 | 60.19313 | 11.10495 | 685 ft | 0 kts | 16° |
| 2026-05-07 21:22 | 60.19309 | 11.10493 | 685 ft | 3 kts | 16° |
| 2026-05-07 21:22 | 60.19285 | 11.10479 | 685 ft | 2 kts | 16° |
| 2026-05-07 21:23 | 60.19266 | 11.10462 | 685 ft | 4 kts | 64° |
| 2026-05-07 21:23 | 60.19266 | 11.10417 | 684 ft | 4 kts | 106° |
| 2026-05-07 21:23 | 60.19265 | 11.10429 | 679 ft | 4 kts | 106° |
| 2026-05-07 21:23 | 60.19262 | 11.10449 | 679 ft | 0 kts | 106° |
| 2026-05-07 21:26 | 60.19262 | 11.10450 | 685 ft | 0 kts | 106° |
| 2026-05-07 21:26 | 60.19255 | 11.10494 | 685 ft | 7 kts | 106° |
| 2026-05-07 21:26 | 60.19240 | 11.10599 | 685 ft | 9 kts | 106° |
| 2026-05-07 21:27 | 60.19220 | 11.10739 | 685 ft | 12 kts | 106° |
| 2026-05-07 21:27 | 60.19194 | 11.10914 | 685 ft | 14 kts | 106° |
| 2026-05-07 21:27 | 60.19164 | 11.11124 | 684 ft | 17 kts | 106° |
| 2026-05-07 21:27 | 60.19178 | 11.11307 | 683 ft | 15 kts | 29° |
| 2026-05-07 21:28 | 60.19246 | 11.11350 | 682 ft | 16 kts | 16° |
| 2026-05-07 21:28 | 60.19365 | 11.11420 | 682 ft | 19 kts | 17° |
| 2026-05-07 21:28 | 60.19500 | 11.11494 | 682 ft | 21 kts | 13° |
| 2026-05-07 21:28 | 60.19646 | 11.11574 | 683 ft | 22 kts | 17° |
| 2026-05-07 21:29 | 60.19798 | 11.11671 | 685 ft | 23 kts | 16° |
| 2026-05-07 21:29 | 60.19955 | 11.11761 | 682 ft | 23 kts | 17° |
| 2026-05-07 21:29 | 60.20062 | 11.11841 | 683 ft | 11 kts | 50° |
| 2026-05-07 21:29 | 60.20057 | 11.11974 | 688 ft | 9 kts | 104° |
| 2026-05-07 21:30 | 60.20037 | 11.12106 | 682 ft | 11 kts | 114° |
| 2026-05-07 21:30 | 60.19965 | 11.12158 | 688 ft | 18 kts | 197° |
| 2026-05-07 21:30 | 60.19662 | 11.11985 | 685 ft | 79 kts | 196° |
| 2026-05-07 21:30 | 60.18954 | 11.11577 | 684 ft | 131 kts | 196° |
| 2026-05-07 21:31 | 60.17949 | 11.10999 | 725 ft | 165 kts | 195° |
| 2026-05-07 21:31 | 60.16883 | 11.10410 | 1361 ft | 155 kts | 195° |
| 2026-05-07 21:31 | 60.15842 | 11.09822 | 1921 ft | 157 kts | 195° |
| 2026-05-07 21:31 | 60.14740 | 11.09182 | 2211 ft | 175 kts | 195° |
| 2026-05-07 21:32 | 60.13492 | 11.08463 | 2430 ft | 199 kts | 193° |
| 2026-05-07 21:32 | 60.12032 | 11.08056 | 2704 ft | 225 kts | 186° |
| 2026-05-07 21:32 | 60.10397 | 11.07698 | 3136 ft | 247 kts | 186° |
| 2026-05-07 21:32 | 60.08658 | 11.07313 | 3921 ft | 255 kts | 186° |
| 2026-05-07 21:33 | 60.06893 | 11.06755 | 4812 ft | 260 kts | 198° |
| 2026-05-07 21:33 | 60.05367 | 11.04797 | 5655 ft | 266 kts | 228° |
| 2026-05-07 21:33 | 60.04352 | 11.01671 | 6548 ft | 270 kts | 240° |
| 2026-05-07 21:33 | 60.03417 | 10.98407 | 7414 ft | 271 kts | 240° |
| 2026-05-07 21:34 | 60.02478 | 10.95124 | 8296 ft | 273 kts | 240° |
| 2026-05-07 21:34 | 60.01533 | 10.91823 | 9189 ft | 274 kts | 240° |
| 2026-05-07 21:34 | 60.00580 | 10.88503 | 10056 ft | 276 kts | 240° |
| 2026-05-07 21:34 | 59.99607 | 10.85136 | 10546 ft | 290 kts | 240° |
| 2026-05-07 21:35 | 59.98554 | 10.81514 | 10788 ft | 311 kts | 240° |
| 2026-05-07 21:35 | 59.97448 | 10.77732 | 11342 ft | 319 kts | 240° |
| 2026-05-07 21:35 | 59.96322 | 10.73890 | 12050 ft | 322 kts | 240° |
| 2026-05-07 21:35 | 59.95185 | 10.70015 | 12781 ft | 325 kts | 241° |
| 2026-05-07 21:36 | 59.94050 | 10.66105 | 13507 ft | 327 kts | 244° |
| 2026-05-07 21:36 | 59.93342 | 10.61877 | 14171 ft | 328 kts | 261° |
| 2026-05-07 21:36 | 59.92995 | 10.57380 | 14832 ft | 329 kts | 262° |
| 2026-05-07 21:36 | 59.92655 | 10.52798 | 15472 ft | 331 kts | 262° |
| 2026-05-07 21:37 | 59.92324 | 10.48304 | 16096 ft | 333 kts | 262° |
| 2026-05-07 21:37 | 59.91984 | 10.43717 | 16729 ft | 335 kts | 262° |
| 2026-05-07 21:37 | 59.91638 | 10.39107 | 17333 ft | 338 kts | 262° |
| 2026-05-07 21:37 | 59.91285 | 10.34463 | 17964 ft | 340 kts | 262° |
| 2026-05-07 21:38 | 59.90927 | 10.29795 | 18579 ft | 343 kts | 262° |
| 2026-05-07 21:38 | 59.90559 | 10.25080 | 19134 ft | 345 kts | 262° |
| 2026-05-07 21:38 | 59.90188 | 10.20341 | 19698 ft | 347 kts | 262° |
| 2026-05-07 21:38 | 59.89817 | 10.15569 | 20275 ft | 350 kts | 262° |
| 2026-05-07 21:39 | 59.89445 | 10.10768 | 20844 ft | 352 kts | 262° |
| 2026-05-07 21:39 | 59.89066 | 10.05926 | 21395 ft | 355 kts | 262° |
| 2026-05-07 21:39 | 59.88679 | 10.01062 | 21940 ft | 357 kts | 262° |
| 2026-05-07 21:39 | 59.88286 | 9.96160 | 22475 ft | 360 kts | 263° |
| 2026-05-07 21:40 | 59.87889 | 9.91219 | 23034 ft | 363 kts | 262° |
| 2026-05-07 21:40 | 59.87491 | 9.86251 | 23570 ft | 365 kts | 263° |
| 2026-05-07 21:40 | 59.87087 | 9.81250 | 24019 ft | 367 kts | 263° |
| 2026-05-07 21:40 | 59.86681 | 9.76217 | 24455 ft | 369 kts | 263° |
| 2026-05-07 21:41 | 59.86274 | 9.71164 | 24875 ft | 371 kts | 263° |
| 2026-05-07 21:41 | 59.85861 | 9.66087 | 25312 ft | 372 kts | 262° |
| 2026-05-07 21:41 | 59.85442 | 9.60988 | 25737 ft | 374 kts | 262° |
| 2026-05-07 21:41 | 59.85020 | 9.55880 | 26157 ft | 376 kts | 262° |
| 2026-05-07 21:42 | 59.84594 | 9.50747 | 26575 ft | 377 kts | 262° |
| 2026-05-07 21:42 | 59.84165 | 9.45585 | 26970 ft | 379 kts | 262° |
| 2026-05-07 21:42 | 59.83733 | 9.40407 | 27335 ft | 381 kts | 262° |
| 2026-05-07 21:42 | 59.83299 | 9.35189 | 27624 ft | 385 kts | 262° |
| 2026-05-07 21:43 | 59.82857 | 9.29925 | 27951 ft | 388 kts | 262° |
| 2026-05-07 21:43 | 59.82410 | 9.24631 | 28131 ft | 386 kts | 262° |
| 2026-05-07 21:43 | 59.81528 | 9.14358 | 28163 ft | 373 kts | 261° |
| 2026-05-07 21:44 | 59.80649 | 9.04224 | 28162 ft | 372 kts | 261° |
| 2026-05-07 21:44 | 59.79768 | 8.94117 | 28171 ft | 372 kts | 261° |
| 2026-05-07 21:45 | 59.78881 | 8.84005 | 28172 ft | 371 kts | 261° |
| 2026-05-07 21:45 | 59.77987 | 8.73919 | 28173 ft | 371 kts | 261° |
| 2026-05-07 21:46 | 59.77080 | 8.63819 | 28172 ft | 372 kts | 261° |
| 2026-05-07 21:46 | 59.76170 | 8.53798 | 28177 ft | 372 kts | 260° |
| 2026-05-07 21:47 | 59.75245 | 8.43710 | 28174 ft | 372 kts | 260° |
| 2026-05-07 21:47 | 59.74312 | 8.33621 | 28178 ft | 372 kts | 259° |
| 2026-05-07 21:48 | 59.72431 | 8.24081 | 28178 ft | 375 kts | 243° |
| 2026-05-07 21:48 | 59.69935 | 8.15024 | 28177 ft | 375 kts | 244° |
| 2026-05-07 21:49 | 59.68693 | 8.10504 | 27783 ft | 373 kts | 244° |
| 2026-05-07 21:49 | 59.67459 | 8.06031 | 27386 ft | 367 kts | 244° |
| 2026-05-07 21:49 | 59.66244 | 8.01634 | 27008 ft | 362 kts | 244° |
| 2026-05-07 21:49 | 59.65039 | 7.97281 | 26642 ft | 358 kts | 244° |
| 2026-05-07 21:50 | 59.63846 | 7.92986 | 26258 ft | 355 kts | 243° |
| 2026-05-07 21:50 | 59.62662 | 7.88726 | 25909 ft | 352 kts | 243° |
| 2026-05-07 21:50 | 59.61486 | 7.84502 | 25539 ft | 350 kts | 243° |
| 2026-05-07 21:50 | 59.60315 | 7.80304 | 25164 ft | 348 kts | 243° |
| 2026-05-07 21:51 | 59.59149 | 7.76133 | 24783 ft | 346 kts | 243° |
| 2026-05-07 21:51 | 59.57991 | 7.72001 | 24399 ft | 344 kts | 243° |
| 2026-05-07 21:51 | 59.56836 | 7.67896 | 24018 ft | 341 kts | 243° |
| 2026-05-07 21:51 | 59.55687 | 7.63811 | 23598 ft | 339 kts | 243° |
| 2026-05-07 21:52 | 59.54547 | 7.59758 | 23192 ft | 336 kts | 243° |
| 2026-05-07 21:52 | 59.53424 | 7.55761 | 22799 ft | 332 kts | 243° |
| 2026-05-07 21:52 | 59.52309 | 7.51805 | 22410 ft | 329 kts | 243° |
| 2026-05-07 21:52 | 59.51201 | 7.47893 | 22022 ft | 325 kts | 243° |
| 2026-05-07 21:53 | 59.50101 | 7.44017 | 21641 ft | 323 kts | 243° |
| 2026-05-07 21:53 | 59.49010 | 7.40183 | 21246 ft | 320 kts | 243° |
| 2026-05-07 21:53 | 59.47929 | 7.36377 | 20862 ft | 317 kts | 243° |
| 2026-05-07 21:53 | 59.46873 | 7.32665 | 20484 ft | 314 kts | 243° |
| 2026-05-07 21:54 | 59.45806 | 7.28926 | 20104 ft | 312 kts | 242° |
| 2026-05-07 21:54 | 59.44750 | 7.25229 | 19710 ft | 310 kts | 242° |
| 2026-05-07 21:54 | 59.43698 | 7.21548 | 19340 ft | 308 kts | 242° |
| 2026-05-07 21:54 | 59.42651 | 7.17896 | 18954 ft | 306 kts | 242° |
| 2026-05-07 21:55 | 59.41608 | 7.14265 | 18593 ft | 305 kts | 242° |
| 2026-05-07 21:55 | 59.40569 | 7.10651 | 18171 ft | 303 kts | 241° |
| 2026-05-07 21:55 | 59.39536 | 7.07067 | 17803 ft | 300 kts | 240° |
| 2026-05-07 21:55 | 59.38513 | 7.03523 | 17437 ft | 297 kts | 240° |
| 2026-05-07 21:56 | 59.37496 | 7.00005 | 17068 ft | 295 kts | 240° |
| 2026-05-07 21:56 | 59.36488 | 6.96519 | 16694 ft | 293 kts | 240° |
| 2026-05-07 21:56 | 59.35482 | 6.93062 | 16335 ft | 291 kts | 240° |
| 2026-05-07 21:56 | 59.34481 | 6.89628 | 15966 ft | 290 kts | 240° |
| 2026-05-07 21:57 | 59.33486 | 6.86207 | 15585 ft | 289 kts | 240° |
| 2026-05-07 21:57 | 59.32507 | 6.82765 | 15199 ft | 289 kts | 242° |
| 2026-05-07 21:57 | 59.31593 | 6.79262 | 14821 ft | 289 kts | 243° |
| 2026-05-07 21:57 | 59.30710 | 6.75739 | 14551 ft | 285 kts | 243° |
| 2026-05-07 21:58 | 59.29848 | 6.72320 | 14355 ft | 278 kts | 243° |
| 2026-05-07 21:58 | 59.28995 | 6.68947 | 14055 ft | 276 kts | 242° |
| 2026-05-07 21:58 | 59.28140 | 6.65583 | 13693 ft | 276 kts | 242° |
| 2026-05-07 21:58 | 59.27288 | 6.62239 | 13346 ft | 274 kts | 242° |
| 2026-05-07 21:59 | 59.26441 | 6.58910 | 13016 ft | 272 kts | 242° |
| 2026-05-07 21:59 | 59.25600 | 6.55607 | 12672 ft | 271 kts | 242° |
| 2026-05-07 21:59 | 59.24759 | 6.52312 | 12342 ft | 270 kts | 242° |
| 2026-05-07 21:59 | 59.23923 | 6.49043 | 12004 ft | 269 kts | 242° |
| 2026-05-07 22:00 | 59.23090 | 6.45787 | 11668 ft | 267 kts | 242° |
| 2026-05-07 22:00 | 59.22259 | 6.42547 | 11340 ft | 267 kts | 242° |
| 2026-05-07 22:00 | 59.21425 | 6.39311 | 11010 ft | 267 kts | 241° |
| 2026-05-07 22:00 | 59.20595 | 6.36088 | 10674 ft | 266 kts | 241° |
| 2026-05-07 22:01 | 59.19778 | 6.32909 | 10346 ft | 265 kts | 241° |
| 2026-05-07 22:01 | 59.18955 | 6.29708 | 10204 ft | 265 kts | 241° |
| 2026-05-07 22:01 | 59.18121 | 6.26475 | 10038 ft | 269 kts | 241° |
| 2026-05-07 22:01 | 59.17272 | 6.23187 | 9574 ft | 272 kts | 240° |
| 2026-05-07 22:02 | 59.16421 | 6.19891 | 9120 ft | 275 kts | 240° |
| 2026-05-07 22:02 | 59.15567 | 6.16583 | 8841 ft | 271 kts | 240° |
| 2026-05-07 22:02 | 59.14719 | 6.13309 | 8504 ft | 271 kts | 240° |
| 2026-05-07 22:02 | 59.13870 | 6.10038 | 8128 ft | 270 kts | 240° |
| 2026-05-07 22:03 | 59.13026 | 6.06793 | 7584 ft | 268 kts | 240° |
| 2026-05-07 22:03 | 59.12184 | 6.03561 | 6927 ft | 267 kts | 239° |
| 2026-05-07 22:03 | 59.11344 | 6.00347 | 6345 ft | 265 kts | 239° |
| 2026-05-07 22:03 | 59.10515 | 5.97174 | 5880 ft | 262 kts | 239° |
| 2026-05-07 22:04 | 59.09695 | 5.94029 | 5499 ft | 255 kts | 239° |
| 2026-05-07 22:04 | 59.08926 | 5.91068 | 5369 ft | 236 kts | 238° |
| 2026-05-07 22:04 | 59.08216 | 5.88341 | 5236 ft | 216 kts | 238° |
| 2026-05-07 22:04 | 59.07560 | 5.85839 | 5103 ft | 199 kts | 237° |
| 2026-05-07 22:05 | 59.06957 | 5.83547 | 4938 ft | 185 kts | 237° |
| 2026-05-07 22:05 | 59.06368 | 5.81325 | 4508 ft | 185 kts | 237° |
| 2026-05-07 22:05 | 59.05782 | 5.79119 | 4166 ft | 183 kts | 237° |
| 2026-05-07 22:05 | 59.05196 | 5.76915 | 4076 ft | 184 kts | 237° |
| 2026-05-07 22:06 | 59.04688 | 5.74666 | 3967 ft | 178 kts | 244° |
| 2026-05-07 22:06 | 59.04263 | 5.72479 | 3824 ft | 168 kts | 244° |
| 2026-05-07 22:06 | 59.03858 | 5.70402 | 3516 ft | 162 kts | 244° |
| 2026-05-07 22:06 | 59.03457 | 5.68360 | 3116 ft | 162 kts | 244° |
| 2026-05-07 22:07 | 59.03046 | 5.66343 | 2751 ft | 159 kts | 237° |
| 2026-05-07 22:07 | 59.02376 | 5.64686 | 2605 ft | 156 kts | 216° |
| 2026-05-07 22:07 | 59.01491 | 5.63691 | 2456 ft | 142 kts | 197° |
| 2026-05-07 22:07 | 59.00544 | 5.63391 | 2290 ft | 137 kts | 178° |
| 2026-05-07 22:08 | 58.99598 | 5.63422 | 2114 ft | 135 kts | 178° |
| 2026-05-07 22:08 | 58.98660 | 5.63451 | 1932 ft | 135 kts | 178° |
| 2026-05-07 22:08 | 58.97724 | 5.63479 | 1745 ft | 135 kts | 178° |
| 2026-05-07 22:08 | 58.96789 | 5.63508 | 1553 ft | 134 kts | 178° |
| 2026-05-07 22:09 | 58.95851 | 5.63536 | 1367 ft | 135 kts | 178° |
| 2026-05-07 22:09 | 58.94911 | 5.63565 | 1182 ft | 136 kts | 178° |
| 2026-05-07 22:09 | 58.93966 | 5.63594 | 988 ft | 136 kts | 178° |
| 2026-05-07 22:09 | 58.93010 | 5.63625 | 788 ft | 138 kts | 179° |
| 2026-05-07 22:10 | 58.92042 | 5.63656 | 587 ft | 140 kts | 179° |
| 2026-05-07 22:10 | 58.91069 | 5.63679 | 402 ft | 140 kts | 179° |
| 2026-05-07 22:10 | 58.90102 | 5.63702 | 223 ft | 139 kts | 179° |
| 2026-05-07 22:10 | 58.89153 | 5.63737 | 43 ft | 138 kts | 178° |
| 2026-05-07 22:11 | 58.88361 | 5.63768 | 31 ft | 76 kts | 179° |
| 2026-05-07 22:11 | 58.88008 | 5.63782 | 32 ft | 40 kts | 179° |
| 2026-05-07 22:11 | 58.87789 | 5.63785 | 33 ft | 22 kts | 179° |
| 2026-05-07 22:11 | 58.87698 | 5.63734 | 32 ft | 10 kts | 245° |
| 2026-05-07 22:12 | 58.87701 | 5.63637 | 33 ft | 6 kts | 284° |
| 2026-05-07 22:12 | 58.87721 | 5.63511 | 32 ft | 12 kts | 287° |
| 2026-05-07 22:12 | 58.87765 | 5.63321 | 30 ft | 19 kts | 318° |
| 2026-05-07 22:12 | 58.87894 | 5.63333 | 31 ft | 21 kts | 22° |
| 2026-05-07 22:13 | 58.88039 | 5.63434 | 30 ft | 24 kts | 7° |
| 2026-05-07 22:13 | 58.88214 | 5.63431 | 30 ft | 26 kts | 358° |
| 2026-05-07 22:13 | 58.88403 | 5.63424 | 31 ft | 24 kts | 356° |
| 2026-05-07 22:13 | 58.88430 | 5.63232 | 28 ft | 17 kts | 256° |
| 2026-05-07 22:14 | 58.88394 | 5.63080 | 29 ft | 7 kts | 227° |
| 2026-05-07 22:14 | 58.88364 | 5.63023 | 25 ft | 5 kts | 223° |
| 2026-05-07 22:14 | 58.88354 | 5.63006 | 26 ft | 0 kts | 222° |